Hilda, South Carolina
Current Conditions -  °F | °C
As of 8:55 PM on Monday 22 Dec 2014 (Local Time) from KBNL Reporting Station
Overcast Overcast  
Wind Chill: 44°   Ceiling: 100
Heat Index: 46°   Visibility: NA
Dew Point: 45°   Wind: 5mph
Humidity: 93%   Direction: 50°NE
Pressure: 30"   Gusts: NA
Location:  33.27°N, 81.25°W
Report Text: KBNL 230155Z AUTO 05004KT OVC001 08/07 A3000 RMK AO2
Loading
Personal Weather Stations






























Interactive Weather Map New forecast layout! Learn more

10-Day Weather Forecast

Advertisements
Track Severe Weather on mobile